sensor_id;sensor_type;location;lat;lon;timestamp;temperature;humidity
16881;DHT22;8557;52.068;5.198;2023-02-22T00:00:10;7.80;99.90
16881;DHT22;8557;52.068;5.198;2023-02-22T00:02:50;7.80;99.90
16881;DHT22;8557;52.068;5.198;2023-02-22T00:05:25;7.80;99.90
16881;DHT22;8557;52.068;5.198;2023-02-22T00:07:53;7.80;99.90
16881;DHT22;8557;52.068;5.198;2023-02-22T00:10:22;7.70;99.90
16881;DHT22;8557;52.068;5.198;2023-02-22T00:12:52;7.70;99.90
16881;DHT22;8557;52.068;5.198;2023-02-22T00:15:23;7.60;99.90
16881;DHT22;8557;52.068;5.198;2023-02-22T00:17:54;7.60;99.90
16881;DHT22;8557;52.068;5.198;2023-02-22T00:20:22;7.60;99.90
16881;DHT22;8557;52.068;5.198;2023-02-22T00:22:52;7.70;99.90
16881;DHT22;8557;52.068;5.198;2023-02-22T00:25:20;7.70;99.90
16881;DHT22;8557;52.068;5.198;2023-02-22T00:27:48;7.70;99.90
16881;DHT22;8557;52.068;5.198;2023-02-22T00:30:19;7.70;99.90
16881;DHT22;8557;52.068;5.198;2023-02-22T00:32:47;7.70;99.90
16881;DHT22;8557;52.068;5.198;2023-02-22T00:35:19;7.70;99.90
16881;DHT22;8557;52.068;5.198;2023-02-22T00:37:48;7.70;99.90
16881;DHT22;8557;52.068;5.198;2023-02-22T00:40:16;7.70;99.90
16881;DHT22;8557;52.068;5.198;2023-02-22T00:42:44;7.70;99.90
16881;DHT22;8557;52.068;5.198;2023-02-22T00:45:12;7.60;99.90
16881;DHT22;8557;52.068;5.198;2023-02-22T00:47:39;7.70;99.90
16881;DHT22;8557;52.068;5.198;2023-02-22T00:50:06;7.70;99.90
16881;DHT22;8557;52.068;5.198;2023-02-22T00:52:36;7.60;99.90
16881;DHT22;8557;52.068;5.198;2023-02-22T00:55:04;7.70;99.90
16881;DHT22;8557;52.068;5.198;2023-02-22T00:57:31;7.70;99.90
16881;DHT22;8557;52.068;5.198;2023-02-22T00:59:59;7.70;99.90
16881;DHT22;8557;52.068;5.198;2023-02-22T01:02:36;7.70;99.90
16881;DHT22;8557;52.068;5.198;2023-02-22T01:05:03;7.60;99.90
16881;DHT22;8557;52.068;5.198;2023-02-22T01:07:30;7.60;99.90
16881;DHT22;8557;52.068;5.198;2023-02-22T01:09:59;7.50;99.90
16881;DHT22;8557;52.068;5.198;2023-02-22T01:12:26;7.50;99.90
16881;DHT22;8557;52.068;5.198;2023-02-22T01:14:53;7.50;99.90
16881;DHT22;8557;52.068;5.198;2023-02-22T01:17:21;7.50;99.90
16881;DHT22;8557;52.068;5.198;2023-02-22T01:19:48;7.60;99.90
16881;DHT22;8557;52.068;5.198;2023-02-22T01:22:15;7.60;99.90
16881;DHT22;8557;52.068;5.198;2023-02-22T01:24:42;7.60;99.90
16881;DHT22;8557;52.068;5.198;2023-02-22T01:27:10;7.60;99.90
16881;DHT22;8557;52.068;5.198;2023-02-22T01:29:37;7.50;99.90
16881;DHT22;8557;52.068;5.198;2023-02-22T01:32:06;7.40;99.90
16881;DHT22;8557;52.068;5.198;2023-02-22T01:34:33;7.40;99.90
16881;DHT22;8557;52.068;5.198;2023-02-22T01:37:00;7.40;99.90
16881;DHT22;8557;52.068;5.198;2023-02-22T01:39:27;7.40;99.90
16881;DHT22;8557;52.068;5.198;2023-02-22T01:41:54;7.50;99.90
16881;DHT22;8557;52.068;5.198;2023-02-22T01:44:28;7.40;99.90
16881;DHT22;8557;52.068;5.198;2023-02-22T01:46:57;7.40;99.90
16881;DHT22;8557;52.068;5.198;2023-02-22T01:49:26;7.30;99.90
16881;DHT22;8557;52.068;5.198;2023-02-22T01:51:57;7.30;99.90
16881;DHT22;8557;52.068;5.198;2023-02-22T01:54:28;7.30;99.90
16881;DHT22;8557;52.068;5.198;2023-02-22T01:57:03;7.30;99.90
16881;DHT22;8557;52.068;5.198;2023-02-22T01:59:35;7.20;99.90
16881;DHT22;8557;52.068;5.198;2023-02-22T02:02:03;7.30;99.90
16881;DHT22;8557;52.068;5.198;2023-02-22T02:04:31;7.30;99.90
16881;DHT22;8557;52.068;5.198;2023-02-22T02:07:00;7.30;99.90
16881;DHT22;8557;52.068;5.198;2023-02-22T02:09:33;7.30;99.90
16881;DHT22;8557;52.068;5.198;2023-02-22T02:12:02;7.30;99.90
16881;DHT22;8557;52.068;5.198;2023-02-22T02:14:32;7.20;99.90
16881;DHT22;8557;52.068;5.198;2023-02-22T02:17:06;7.20;99.90
16881;DHT22;8557;52.068;5.198;2023-02-22T02:19:40;7.20;99.90
16881;DHT22;8557;52.068;5.198;2023-02-22T02:22:30;7.20;99.90
16881;DHT22;8557;52.068;5.198;2023-02-22T02:25:46;7.10;99.90
16881;DHT22;8557;52.068;5.198;2023-02-22T02:32:03;7.10;99.90
16881;DHT22;8557;52.068;5.198;2023-02-22T02:34:36;7.00;99.90
16881;DHT22;8557;52.068;5.198;2023-02-22T02:37:11;6.90;99.90
16881;DHT22;8557;52.068;5.198;2023-02-22T02:39:47;6.90;99.90
16881;DHT22;8557;52.068;5.198;2023-02-22T02:42:20;6.90;99.90
16881;DHT22;8557;52.068;5.198;2023-02-22T02:44:53;6.90;99.90
16881;DHT22;8557;52.068;5.198;2023-02-22T02:47:25;6.90;99.90
16881;DHT22;8557;52.068;5.198;2023-02-22T02:49:55;6.90;99.90
16881;DHT22;8557;52.068;5.198;2023-02-22T02:52:25;6.90;99.90
16881;DHT22;8557;52.068;5.198;2023-02-22T02:54:53;6.80;99.90
16881;DHT22;8557;52.068;5.198;2023-02-22T02:57:22;6.70;99.90
16881;DHT22;8557;52.068;5.198;2023-02-22T02:59:50;6.70;99.90
16881;DHT22;8557;52.068;5.198;2023-02-22T03:02:29;6.60;99.90
16881;DHT22;8557;52.068;5.198;2023-02-22T03:05:10;6.70;99.90
16881;DHT22;8557;52.068;5.198;2023-02-22T03:07:48;6.70;99.90
16881;DHT22;8557;52.068;5.198;2023-02-22T03:10:24;6.70;99.90
16881;DHT22;8557;52.068;5.198;2023-02-22T03:13:04;6.70;99.90
16881;DHT22;8557;52.068;5.198;2023-02-22T03:15:43;6.80;99.90
16881;DHT22;8557;52.068;5.198;2023-02-22T03:18:17;6.80;99.90
16881;DHT22;8557;52.068;5.198;2023-02-22T03:20:52;6.80;99.90
16881;DHT22;8557;52.068;5.198;2023-02-22T03:23:24;6.80;99.90
16881;DHT22;8557;52.068;5.198;2023-02-22T03:25:56;6.80;99.90
16881;DHT22;8557;52.068;5.198;2023-02-22T03:28:24;6.70;99.90
16881;DHT22;8557;52.068;5.198;2023-02-22T03:30:54;6.60;99.90
16881;DHT22;8557;52.068;5.198;2023-02-22T03:33:27;6.60;99.90
16881;DHT22;8557;52.068;5.198;2023-02-22T03:36:01;6.60;99.90
16881;DHT22;8557;52.068;5.198;2023-02-22T03:38:31;6.50;99.90
16881;DHT22;8557;52.068;5.198;2023-02-22T03:41:00;6.50;99.90
16881;DHT22;8557;52.068;5.198;2023-02-22T03:43:31;6.50;99.90
16881;DHT22;8557;52.068;5.198;2023-02-22T03:46:01;6.50;99.90
16881;DHT22;8557;52.068;5.198;2023-02-22T03:48:36;6.50;99.90
16881;DHT22;8557;52.068;5.198;2023-02-22T03:51:05;6.60;99.90
16881;DHT22;8557;52.068;5.198;2023-02-22T03:53:34;6.50;99.90
16881;DHT22;8557;52.068;5.198;2023-02-22T03:56:03;6.60;99.90
16881;DHT22;8557;52.068;5.198;2023-02-22T03:58:34;6.50;99.90
16881;DHT22;8557;52.068;5.198;2023-02-22T04:01:02;6.50;99.90
16881;DHT22;8557;52.068;5.198;2023-02-22T04:03:30;6.50;99.90
16881;DHT22;8557;52.068;5.198;2023-02-22T04:06:00;6.50;99.90
16881;DHT22;8557;52.068;5.198;2023-02-22T04:08:28;6.60;99.90
16881;DHT22;8557;52.068;5.198;2023-02-22T04:10:55;6.60;99.90
16881;DHT22;8557;52.068;5.198;2023-02-22T04:13:23;6.50;99.90
16881;DHT22;8557;52.068;5.198;2023-02-22T04:15:49;6.50;99.90
16881;DHT22;8557;52.068;5.198;2023-02-22T04:18:16;6.40;99.90
16881;DHT22;8557;52.068;5.198;2023-02-22T04:20:44;6.40;99.90
16881;DHT22;8557;52.068;5.198;2023-02-22T04:23:11;6.30;99.90
16881;DHT22;8557;52.068;5.198;2023-02-22T04:25:38;6.30;99.90
16881;DHT22;8557;52.068;5.198;2023-02-22T04:28:05;6.30;99.90
16881;DHT22;8557;52.068;5.198;2023-02-22T04:30:31;6.30;99.90
16881;DHT22;8557;52.068;5.198;2023-02-22T04:32:58;6.30;99.90
16881;DHT22;8557;52.068;5.198;2023-02-22T04:35:25;6.30;99.90
16881;DHT22;8557;52.068;5.198;2023-02-22T04:37:53;6.40;99.90
16881;DHT22;8557;52.068;5.198;2023-02-22T04:40:20;6.30;99.90
16881;DHT22;8557;52.068;5.198;2023-02-22T04:42:47;6.40;99.90
16881;DHT22;8557;52.068;5.198;2023-02-22T04:45:13;6.30;99.90
16881;DHT22;8557;52.068;5.198;2023-02-22T04:47:40;6.30;99.90
16881;DHT22;8557;52.068;5.198;2023-02-22T04:50:08;6.20;99.90
16881;DHT22;8557;52.068;5.198;2023-02-22T04:52:35;6.30;99.90
16881;DHT22;8557;52.068;5.198;2023-02-22T04:55:04;6.30;99.90
16881;DHT22;8557;52.068;5.198;2023-02-22T04:57:31;6.30;99.90
16881;DHT22;8557;52.068;5.198;2023-02-22T04:59:58;6.30;99.90
16881;DHT22;8557;52.068;5.198;2023-02-22T05:02:25;6.20;99.90
16881;DHT22;8557;52.068;5.198;2023-02-22T05:04:52;6.20;99.90
16881;DHT22;8557;52.068;5.198;2023-02-22T05:07:18;6.10;99.90
16881;DHT22;8557;52.068;5.198;2023-02-22T05:09:45;6.20;99.90
16881;DHT22;8557;52.068;5.198;2023-02-22T05:12:13;6.20;99.90
16881;DHT22;8557;52.068;5.198;2023-02-22T05:14:40;6.20;99.90
16881;DHT22;8557;52.068;5.198;2023-02-22T05:17:09;6.20;99.90
16881;DHT22;8557;52.068;5.198;2023-02-22T05:19:35;6.10;99.90
16881;DHT22;8557;52.068;5.198;2023-02-22T05:22:02;6.10;99.90
16881;DHT22;8557;52.068;5.198;2023-02-22T05:24:30;6.20;99.90
16881;DHT22;8557;52.068;5.198;2023-02-22T05:26:57;6.30;99.90
16881;DHT22;8557;52.068;5.198;2023-02-22T05:29:25;6.30;99.90
16881;DHT22;8557;52.068;5.198;2023-02-22T05:31:51;6.30;99.90
16881;DHT22;8557;52.068;5.198;2023-02-22T05:34:18;6.30;99.90
16881;DHT22;8557;52.068;5.198;2023-02-22T05:36:45;6.30;99.90
16881;DHT22;8557;52.068;5.198;2023-02-22T05:39:12;6.30;99.90
16881;DHT22;8557;52.068;5.198;2023-02-22T05:41:39;6.30;99.90
16881;DHT22;8557;52.068;5.198;2023-02-22T05:44:05;6.30;99.90
16881;DHT22;8557;52.068;5.198;2023-02-22T05:46:33;6.30;99.90
16881;DHT22;8557;52.068;5.198;2023-02-22T05:49:00;6.30;99.90
16881;DHT22;8557;52.068;5.198;2023-02-22T05:51:27;6.30;99.90
16881;DHT22;8557;52.068;5.198;2023-02-22T05:53:54;6.20;99.90
16881;DHT22;8557;52.068;5.198;2023-02-22T05:56:22;6.20;99.90
16881;DHT22;8557;52.068;5.198;2023-02-22T05:58:50;6.20;99.90
16881;DHT22;8557;52.068;5.198;2023-02-22T06:01:17;6.20;99.90
16881;DHT22;8557;52.068;5.198;2023-02-22T06:03:47;6.30;99.90
16881;DHT22;8557;52.068;5.198;2023-02-22T06:06:14;6.30;99.90
16881;DHT22;8557;52.068;5.198;2023-02-22T06:08:41;6.30;99.90
16881;DHT22;8557;52.068;5.198;2023-02-22T06:11:08;6.30;99.90
16881;DHT22;8557;52.068;5.198;2023-02-22T06:13:35;6.30;99.90
16881;DHT22;8557;52.068;5.198;2023-02-22T06:16:02;6.30;99.90
16881;DHT22;8557;52.068;5.198;2023-02-22T06:18:29;6.30;99.90
16881;DHT22;8557;52.068;5.198;2023-02-22T06:20:58;6.30;99.90
16881;DHT22;8557;52.068;5.198;2023-02-22T06:23:25;6.30;99.90
16881;DHT22;8557;52.068;5.198;2023-02-22T06:25:52;6.20;99.90
16881;DHT22;8557;52.068;5.198;2023-02-22T06:28:19;6.20;99.90
16881;DHT22;8557;52.068;5.198;2023-02-22T06:30:46;6.30;99.90
16881;DHT22;8557;52.068;5.198;2023-02-22T06:33:12;6.20;99.90
16881;DHT22;8557;52.068;5.198;2023-02-22T06:35:39;6.30;99.90
16881;DHT22;8557;52.068;5.198;2023-02-22T06:38:07;6.30;99.90
16881;DHT22;8557;52.068;5.198;2023-02-22T06:40:34;6.30;99.90
16881;DHT22;8557;52.068;5.198;2023-02-22T06:43:01;6.30;99.90
16881;DHT22;8557;52.068;5.198;2023-02-22T06:45:28;6.30;99.90
16881;DHT22;8557;52.068;5.198;2023-02-22T06:47:55;6.20;99.90
16881;DHT22;8557;52.068;5.198;2023-02-22T06:50:23;6.30;99.90
16881;DHT22;8557;52.068;5.198;2023-02-22T06:52:51;6.20;99.90
16881;DHT22;8557;52.068;5.198;2023-02-22T06:55:21;6.20;99.90
16881;DHT22;8557;52.068;5.198;2023-02-22T06:57:48;6.20;99.90
16881;DHT22;8557;52.068;5.198;2023-02-22T07:00:16;6.20;99.90
16881;DHT22;8557;52.068;5.198;2023-02-22T07:02:45;6.20;99.90
16881;DHT22;8557;52.068;5.198;2023-02-22T07:05:14;6.30;99.90
16881;DHT22;8557;52.068;5.198;2023-02-22T07:07:41;6.30;99.90
16881;DHT22;8557;52.068;5.198;2023-02-22T07:10:16;6.30;99.90
16881;DHT22;8557;52.068;5.198;2023-02-22T07:12:45;6.30;99.90
16881;DHT22;8557;52.068;5.198;2023-02-22T07:15:13;6.30;99.90
16881;DHT22;8557;52.068;5.198;2023-02-22T07:17:40;6.30;99.90
16881;DHT22;8557;52.068;5.198;2023-02-22T07:20:07;6.40;99.90
16881;DHT22;8557;52.068;5.198;2023-02-22T07:22:36;6.40;99.90
16881;DHT22;8557;52.068;5.198;2023-02-22T07:25:04;6.40;99.90
16881;DHT22;8557;52.068;5.198;2023-02-22T07:27:31;6.40;99.90
16881;DHT22;8557;52.068;5.198;2023-02-22T07:29:59;6.50;99.90
16881;DHT22;8557;52.068;5.198;2023-02-22T07:32:26;6.50;99.90
16881;DHT22;8557;52.068;5.198;2023-02-22T07:34:53;6.50;99.90
16881;DHT22;8557;52.068;5.198;2023-02-22T07:37:19;6.50;99.90
16881;DHT22;8557;52.068;5.198;2023-02-22T07:39:46;6.50;99.90
16881;DHT22;8557;52.068;5.198;2023-02-22T07:42:13;6.50;99.90
16881;DHT22;8557;52.068;5.198;2023-02-22T07:44:40;6.50;99.90
16881;DHT22;8557;52.068;5.198;2023-02-22T07:47:08;6.50;99.90
16881;DHT22;8557;52.068;5.198;2023-02-22T07:49:37;6.50;99.90
16881;DHT22;8557;52.068;5.198;2023-02-22T07:52:04;6.60;99.90
16881;DHT22;8557;52.068;5.198;2023-02-22T07:54:32;6.60;99.90
16881;DHT22;8557;52.068;5.198;2023-02-22T07:56:58;6.60;99.90
16881;DHT22;8557;52.068;5.198;2023-02-22T07:59:25;6.70;99.90
16881;DHT22;8557;52.068;5.198;2023-02-22T08:01:52;6.70;99.90
16881;DHT22;8557;52.068;5.198;2023-02-22T08:04:20;6.70;99.90
16881;DHT22;8557;52.068;5.198;2023-02-22T08:06:47;6.80;99.90
16881;DHT22;8557;52.068;5.198;2023-02-22T08:09:14;6.70;99.90
16881;DHT22;8557;52.068;5.198;2023-02-22T08:11:41;6.70;99.90
16881;DHT22;8557;52.068;5.198;2023-02-22T08:14:08;6.80;99.90
16881;DHT22;8557;52.068;5.198;2023-02-22T08:16:34;6.80;99.90
16881;DHT22;8557;52.068;5.198;2023-02-22T08:19:01;6.80;99.90
16881;DHT22;8557;52.068;5.198;2023-02-22T08:21:29;6.80;99.90
16881;DHT22;8557;52.068;5.198;2023-02-22T08:23:56;6.80;99.90
16881;DHT22;8557;52.068;5.198;2023-02-22T08:26:23;6.90;99.90
16881;DHT22;8557;52.068;5.198;2023-02-22T08:28:50;7.00;99.90
16881;DHT22;8557;52.068;5.198;2023-02-22T08:31:16;7.00;99.90
16881;DHT22;8557;52.068;5.198;2023-02-22T08:33:46;7.10;99.90
16881;DHT22;8557;52.068;5.198;2023-02-22T08:36:14;7.00;99.90
16881;DHT22;8557;52.068;5.198;2023-02-22T08:38:42;7.00;99.90
16881;DHT22;8557;52.068;5.198;2023-02-22T08:41:09;7.10;99.90
16881;DHT22;8557;52.068;5.198;2023-02-22T08:43:36;7.10;99.90
16881;DHT22;8557;52.068;5.198;2023-02-22T08:46:03;7.10;99.90
16881;DHT22;8557;52.068;5.198;2023-02-22T08:48:29;7.20;99.90
16881;DHT22;8557;52.068;5.198;2023-02-22T08:50:56;7.30;99.90
16881;DHT22;8557;52.068;5.198;2023-02-22T08:53:23;7.30;99.90
16881;DHT22;8557;52.068;5.198;2023-02-22T08:55:52;7.40;99.90
16881;DHT22;8557;52.068;5.198;2023-02-22T08:58:18;7.40;99.90
16881;DHT22;8557;52.068;5.198;2023-02-22T09:00:45;7.40;99.90
16881;DHT22;8557;52.068;5.198;2023-02-22T09:03:13;7.50;99.90
16881;DHT22;8557;52.068;5.198;2023-02-22T09:05:40;7.50;99.90
16881;DHT22;8557;52.068;5.198;2023-02-22T09:08:07;7.60;99.90
16881;DHT22;8557;52.068;5.198;2023-02-22T09:10:34;7.60;99.90
16881;DHT22;8557;52.068;5.198;2023-02-22T09:13:03;7.70;99.90
16881;DHT22;8557;52.068;5.198;2023-02-22T09:15:31;7.70;99.90
16881;DHT22;8557;52.068;5.198;2023-02-22T09:18:00;7.70;99.90
16881;DHT22;8557;52.068;5.198;2023-02-22T09:20:27;7.80;99.90
16881;DHT22;8557;52.068;5.198;2023-02-22T09:22:55;7.80;99.90
16881;DHT22;8557;52.068;5.198;2023-02-22T09:25:22;7.90;99.90
16881;DHT22;8557;52.068;5.198;2023-02-22T09:27:50;8.00;99.90
16881;DHT22;8557;52.068;5.198;2023-02-22T09:30:22;8.10;99.90
16881;DHT22;8557;52.068;5.198;2023-02-22T09:32:51;8.10;99.90
16881;DHT22;8557;52.068;5.198;2023-02-22T09:35:18;8.10;99.90
16881;DHT22;8557;52.068;5.198;2023-02-22T09:37:51;8.20;99.90
16881;DHT22;8557;52.068;5.198;2023-02-22T09:40:19;8.30;99.90
16881;DHT22;8557;52.068;5.198;2023-02-22T09:42:58;8.30;99.90
16881;DHT22;8557;52.068;5.198;2023-02-22T09:45:33;8.50;99.90
16881;DHT22;8557;52.068;5.198;2023-02-22T09:48:04;8.60;99.90
16881;DHT22;8557;52.068;5.198;2023-02-22T09:50:33;8.70;99.90
16881;DHT22;8557;52.068;5.198;2023-02-22T09:53:04;8.70;99.90
16881;DHT22;8557;52.068;5.198;2023-02-22T09:55:33;8.80;99.90
16881;DHT22;8557;52.068;5.198;2023-02-22T09:58:05;9.00;99.90
16881;DHT22;8557;52.068;5.198;2023-02-22T10:00:35;9.00;99.90
16881;DHT22;8557;52.068;5.198;2023-02-22T10:03:16;9.10;99.90
16881;DHT22;8557;52.068;5.198;2023-02-22T10:05:50;9.20;99.90
16881;DHT22;8557;52.068;5.198;2023-02-22T10:08:19;9.30;99.90
16881;DHT22;8557;52.068;5.198;2023-02-22T10:10:53;9.30;99.90
16881;DHT22;8557;52.068;5.198;2023-02-22T10:13:29;9.40;99.90
16881;DHT22;8557;52.068;5.198;2023-02-22T10:16:02;9.50;99.90
16881;DHT22;8557;52.068;5.198;2023-02-22T10:18:44;9.50;99.90
16881;DHT22;8557;52.068;5.198;2023-02-22T10:21:23;9.60;99.90
16881;DHT22;8557;52.068;5.198;2023-02-22T10:24:00;9.50;99.90
16881;DHT22;8557;52.068;5.198;2023-02-22T10:26:33;9.50;99.90
16881;DHT22;8557;52.068;5.198;2023-02-22T10:29:05;9.50;99.90
16881;DHT22;8557;52.068;5.198;2023-02-22T10:31:39;9.50;99.90
16881;DHT22;8557;52.068;5.198;2023-02-22T10:34:12;9.60;99.90
16881;DHT22;8557;52.068;5.198;2023-02-22T10:36:40;9.60;99.90
16881;DHT22;8557;52.068;5.198;2023-02-22T10:39:15;9.60;99.90
16881;DHT22;8557;52.068;5.198;2023-02-22T10:41:48;9.60;99.90
16881;DHT22;8557;52.068;5.198;2023-02-22T10:44:17;9.60;99.90
16881;DHT22;8557;52.068;5.198;2023-02-22T10:46:45;9.70;99.90
16881;DHT22;8557;52.068;5.198;2023-02-22T10:49:17;9.60;99.90
16881;DHT22;8557;52.068;5.198;2023-02-22T10:51:47;9.60;99.90
16881;DHT22;8557;52.068;5.198;2023-02-22T10:54:24;9.50;99.90
16881;DHT22;8557;52.068;5.198;2023-02-22T10:56:54;9.60;99.90
16881;DHT22;8557;52.068;5.198;2023-02-22T10:59:27;9.60;99.90
16881;DHT22;8557;52.068;5.198;2023-02-22T11:01:56;9.70;99.90
16881;DHT22;8557;52.068;5.198;2023-02-22T11:04:23;9.80;99.90
16881;DHT22;8557;52.068;5.198;2023-02-22T11:07:08;9.80;99.90
16881;DHT22;8557;52.068;5.198;2023-02-22T11:09:50;9.90;99.90
16881;DHT22;8557;52.068;5.198;2023-02-22T11:12:20;9.90;99.90
16881;DHT22;8557;52.068;5.198;2023-02-22T11:14:47;10.00;99.90
16881;DHT22;8557;52.068;5.198;2023-02-22T11:17:21;10.20;99.90
16881;DHT22;8557;52.068;5.198;2023-02-22T11:19:50;10.30;99.90
16881;DHT22;8557;52.068;5.198;2023-02-22T11:22:21;10.30;99.90
16881;DHT22;8557;52.068;5.198;2023-02-22T11:24:52;10.30;99.90
16881;DHT22;8557;52.068;5.198;2023-02-22T11:27:27;10.20;99.90
16881;DHT22;8557;52.068;5.198;2023-02-22T11:30:06;10.10;99.90
16881;DHT22;8557;52.068;5.198;2023-02-22T11:32:35;10.20;99.90
16881;DHT22;8557;52.068;5.198;2023-02-22T11:35:18;10.20;99.90
16881;DHT22;8557;52.068;5.198;2023-02-22T11:37:45;10.20;99.90
16881;DHT22;8557;52.068;5.198;2023-02-22T11:40:14;10.10;99.90
16881;DHT22;8557;52.068;5.198;2023-02-22T11:42:46;10.20;99.90
16881;DHT22;8557;52.068;5.198;2023-02-22T11:45:15;10.20;99.90
16881;DHT22;8557;52.068;5.198;2023-02-22T11:47:51;10.20;99.90
16881;DHT22;8557;52.068;5.198;2023-02-22T11:50:30;10.30;99.90
16881;DHT22;8557;52.068;5.198;2023-02-22T11:53:13;10.30;99.90
16881;DHT22;8557;52.068;5.198;2023-02-22T11:55:50;10.40;99.90
16881;DHT22;8557;52.068;5.198;2023-02-22T11:58:34;10.50;99.90
16881;DHT22;8557;52.068;5.198;2023-02-22T12:01:08;10.50;99.90
16881;DHT22;8557;52.068;5.198;2023-02-22T12:06:44;10.60;99.90
16881;DHT22;8557;52.068;5.198;2023-02-22T12:09:15;10.70;99.90
16881;DHT22;8557;52.068;5.198;2023-02-22T12:11:54;10.80;99.90
16881;DHT22;8557;52.068;5.198;2023-02-22T12:14:30;10.80;99.90
16881;DHT22;8557;52.068;5.198;2023-02-22T12:17:09;10.90;99.90
16881;DHT22;8557;52.068;5.198;2023-02-22T12:19:42;10.90;99.90
16881;DHT22;8557;52.068;5.198;2023-02-22T12:22:15;10.90;99.90
16881;DHT22;8557;52.068;5.198;2023-02-22T12:24:46;11.00;99.90
16881;DHT22;8557;52.068;5.198;2023-02-22T12:27:18;11.20;99.90
16881;DHT22;8557;52.068;5.198;2023-02-22T12:29:51;11.20;99.90
16881;DHT22;8557;52.068;5.198;2023-02-22T12:32:28;11.30;99.90
16881;DHT22;8557;52.068;5.198;2023-02-22T12:35:03;11.30;99.90
16881;DHT22;8557;52.068;5.198;2023-02-22T12:37:38;11.40;99.90
16881;DHT22;8557;52.068;5.198;2023-02-22T12:40:15;11.40;99.90
16881;DHT22;8557;52.068;5.198;2023-02-22T12:42:55;11.50;99.90
16881;DHT22;8557;52.068;5.198;2023-02-22T12:45:29;11.40;99.90
16881;DHT22;8557;52.068;5.198;2023-02-22T12:48:04;11.60;99.90
16881;DHT22;8557;52.068;5.198;2023-02-22T12:50:35;11.70;99.90
16881;DHT22;8557;52.068;5.198;2023-02-22T12:55:38;11.60;99.90
16881;DHT22;8557;52.068;5.198;2023-02-22T12:58:18;11.60;99.90
16881;DHT22;8557;52.068;5.198;2023-02-22T13:00:54;11.60;99.90
16881;DHT22;8557;52.068;5.198;2023-02-22T13:03:33;11.60;99.90
16881;DHT22;8557;52.068;5.198;2023-02-22T13:06:23;11.50;99.90
16881;DHT22;8557;52.068;5.198;2023-02-22T13:09:03;11.50;99.90
16881;DHT22;8557;52.068;5.198;2023-02-22T13:11:37;11.50;99.90
16881;DHT22;8557;52.068;5.198;2023-02-22T13:14:15;11.50;99.90
16881;DHT22;8557;52.068;5.198;2023-02-22T13:16:55;11.60;99.90
16881;DHT22;8557;52.068;5.198;2023-02-22T13:19:36;11.50;99.90
16881;DHT22;8557;52.068;5.198;2023-02-22T13:22:13;11.40;99.90
16881;DHT22;8557;52.068;5.198;2023-02-22T13:24:51;11.40;99.90
16881;DHT22;8557;52.068;5.198;2023-02-22T13:27:26;11.30;99.90
16881;DHT22;8557;52.068;5.198;2023-02-22T13:29:57;11.30;99.90
16881;DHT22;8557;52.068;5.198;2023-02-22T13:32:33;11.30;99.90
16881;DHT22;8557;52.068;5.198;2023-02-22T13:35:21;11.30;99.90
16881;DHT22;8557;52.068;5.198;2023-02-22T13:38:04;11.40;99.90
16881;DHT22;8557;52.068;5.198;2023-02-22T13:41:01;11.40;99.90
16881;DHT22;8557;52.068;5.198;2023-02-22T13:46:40;11.50;99.90
16881;DHT22;8557;52.068;5.198;2023-02-22T13:49:32;11.50;99.90
16881;DHT22;8557;52.068;5.198;2023-02-22T13:52:04;11.50;99.90
16881;DHT22;8557;52.068;5.198;2023-02-22T13:57:17;11.30;99.90
16881;DHT22;8557;52.068;5.198;2023-02-22T13:59:45;11.30;99.90
16881;DHT22;8557;52.068;5.198;2023-02-22T14:02:31;11.40;99.90
16881;DHT22;8557;52.068;5.198;2023-02-22T14:08:38;11.40;99.90
16881;DHT22;8557;52.068;5.198;2023-02-22T14:14:19;11.30;99.90
16881;DHT22;8557;52.068;5.198;2023-02-22T14:19:59;11.20;99.90
16881;DHT22;8557;52.068;5.198;2023-02-22T14:22:27;11.20;99.90
16881;DHT22;8557;52.068;5.198;2023-02-22T14:24:56;11.10;99.90
16881;DHT22;8557;52.068;5.198;2023-02-22T14:27:24;11.20;99.90
16881;DHT22;8557;52.068;5.198;2023-02-22T14:30:04;11.10;99.90
16881;DHT22;8557;52.068;5.198;2023-02-22T14:32:33;11.10;99.90
16881;DHT22;8557;52.068;5.198;2023-02-22T14:35:03;11.10;99.90
16881;DHT22;8557;52.068;5.198;2023-02-22T14:37:33;11.00;99.90
16881;DHT22;8557;52.068;5.198;2023-02-22T14:40:03;11.10;99.90
16881;DHT22;8557;52.068;5.198;2023-02-22T14:42:42;11.10;99.90
16881;DHT22;8557;52.068;5.198;2023-02-22T14:45:18;11.10;99.90
16881;DHT22;8557;52.068;5.198;2023-02-22T14:47:50;11.00;99.90
16881;DHT22;8557;52.068;5.198;2023-02-22T14:50:28;11.00;99.90
16881;DHT22;8557;52.068;5.198;2023-02-22T14:53:00;10.80;99.90
16881;DHT22;8557;52.068;5.198;2023-02-22T14:55:30;10.80;99.90
16881;DHT22;8557;52.068;5.198;2023-02-22T14:58:06;10.90;99.90
16881;DHT22;8557;52.068;5.198;2023-02-22T15:00:39;10.90;99.90
16881;DHT22;8557;52.068;5.198;2023-02-22T15:03:17;10.90;99.90
16881;DHT22;8557;52.068;5.198;2023-02-22T15:05:45;10.80;99.90
16881;DHT22;8557;52.068;5.198;2023-02-22T15:08:15;10.90;99.90
16881;DHT22;8557;52.068;5.198;2023-02-22T15:10:44;10.80;99.90
16881;DHT22;8557;52.068;5.198;2023-02-22T15:13:17;10.70;99.90
16881;DHT22;8557;52.068;5.198;2023-02-22T15:15:45;10.70;99.90
16881;DHT22;8557;52.068;5.198;2023-02-22T15:18:21;10.70;99.90
16881;DHT22;8557;52.068;5.198;2023-02-22T15:20:52;10.70;99.90
16881;DHT22;8557;52.068;5.198;2023-02-22T15:23:24;10.90;99.90
16881;DHT22;8557;52.068;5.198;2023-02-22T15:25:54;10.90;99.90
16881;DHT22;8557;52.068;5.198;2023-02-22T15:28:23;10.90;99.90
16881;DHT22;8557;52.068;5.198;2023-02-22T15:31:13;10.90;99.90
16881;DHT22;8557;52.068;5.198;2023-02-22T15:33:40;10.80;99.90
16881;DHT22;8557;52.068;5.198;2023-02-22T15:36:13;10.80;99.90
16881;DHT22;8557;52.068;5.198;2023-02-22T15:38:46;10.70;99.90
16881;DHT22;8557;52.068;5.198;2023-02-22T15:41:20;10.70;99.90
16881;DHT22;8557;52.068;5.198;2023-02-22T15:44:05;10.60;99.90
16881;DHT22;8557;52.068;5.198;2023-02-22T15:46:33;10.50;99.90
16881;DHT22;8557;52.068;5.198;2023-02-22T15:49:17;10.60;99.90
16881;DHT22;8557;52.068;5.198;2023-02-22T15:51:45;10.60;99.90
16881;DHT22;8557;52.068;5.198;2023-02-22T15:54:16;10.50;99.90
16881;DHT22;8557;52.068;5.198;2023-02-22T15:56:47;10.50;99.90
16881;DHT22;8557;52.068;5.198;2023-02-22T15:59:18;10.40;99.90
16881;DHT22;8557;52.068;5.198;2023-02-22T16:01:49;10.30;99.90
16881;DHT22;8557;52.068;5.198;2023-02-22T16:04:18;10.20;99.90
16881;DHT22;8557;52.068;5.198;2023-02-22T16:06:46;10.20;99.90
16881;DHT22;8557;52.068;5.198;2023-02-22T16:09:16;10.20;99.90
16881;DHT22;8557;52.068;5.198;2023-02-22T16:11:48;10.20;99.90
16881;DHT22;8557;52.068;5.198;2023-02-22T16:14:27;10.10;99.90
16881;DHT22;8557;52.068;5.198;2023-02-22T16:17:12;10.10;99.90
16881;DHT22;8557;52.068;5.198;2023-02-22T16:19:49;10.00;99.90
16881;DHT22;8557;52.068;5.198;2023-02-22T16:22:25;10.00;99.90
16881;DHT22;8557;52.068;5.198;2023-02-22T16:24:53;10.10;99.90
16881;DHT22;8557;52.068;5.198;2023-02-22T16:27:21;10.10;99.90
16881;DHT22;8557;52.068;5.198;2023-02-22T16:30:07;10.10;99.90
16881;DHT22;8557;52.068;5.198;2023-02-22T16:32:34;10.00;99.90
16881;DHT22;8557;52.068;5.198;2023-02-22T16:35:01;10.00;99.90
16881;DHT22;8557;52.068;5.198;2023-02-22T16:37:27;10.00;99.90
16881;DHT22;8557;52.068;5.198;2023-02-22T16:39:54;9.90;99.90
16881;DHT22;8557;52.068;5.198;2023-02-22T16:42:21;10.00;99.90
16881;DHT22;8557;52.068;5.198;2023-02-22T16:44:50;10.00;99.90